Time;durP1;ratioP1;P1;durP2;ratioP2;P2;SDS_P1;SDS_P2;PMS_P1;PMS_P2;Temp;Humidity;BMP_temperature;BMP_pressure;BME280_temperature;BME280_humidity;BME280_pressure;Samples;Min_cycle;Max_cycle;Signal;HPM_P1;HPM_P2
2021/09/26 00:00:24;;;;;;;6.00;5.50;;;;;;;;;;5088371;28;20179;-57
2021/09/26 00:02:50;;;;;;;8.23;7.40;;;;;;;;;;5089705;28;20178;-57
2021/09/26 00:05:17;;;;;;;6.20;5.70;;;;;;;;;;5089082;28;20219;-58
2021/09/26 00:07:43;;;;;;;6.30;5.80;;;;;;;;;;5089085;28;20184;-57
2021/09/26 00:10:10;;;;;;;6.67;5.43;;;;;;;;;;5075648;28;20175;-57
2021/09/26 00:12:37;;;;;;;7.27;6.00;;;;;;;;;;5086573;28;20328;-58
2021/09/26 00:15:04;;;;;;;6.20;5.60;;;;;;;;;;5089275;28;20636;-57
2021/09/26 00:17:30;;;;;;;6.43;5.80;;;;;;;;;;5089169;28;20206;-57
2021/09/26 00:19:57;;;;;;;7.03;6.43;;;;;;;;;;5089233;28;20176;-57
2021/09/26 00:22:23;;;;;;;6.93;5.87;;;;;;;;;;5070774;28;20270;-57
2021/09/26 00:24:49;;;;;;;6.00;5.50;;;;;;;;;;5088805;28;20183;-57
2021/09/26 00:27:15;;;;;;;6.40;5.57;;;;;;;;;;5087915;28;20176;-57
2021/09/26 00:29:41;;;;;;;7.70;6.13;;;;;;;;;;5088908;28;20187;-57
2021/09/26 00:32:09;;;;;;;9.27;5.90;;;;;;;;;;5089016;28;20207;-58
2021/09/26 00:34:35;;;;;;;8.67;6.10;;;;;;;;;;5088858;28;20290;-57
2021/09/26 00:37:01;;;;;;;6.77;5.97;;;;;;;;;;5070490;28;20546;-57
2021/09/26 00:39:27;;;;;;;6.47;5.77;;;;;;;;;;5088500;28;20627;-58
2021/09/26 00:41:54;;;;;;;6.10;5.50;;;;;;;;;;5087546;28;20172;-58
2021/09/26 00:44:20;;;;;;;5.90;5.40;;;;;;;;;;5070373;28;20204;-57
2021/09/26 00:46:46;;;;;;;5.87;5.37;;;;;;;;;;5088139;28;20227;-57
2021/09/26 00:49:12;;;;;;;12.60;6.37;;;;;;;;;;5088232;28;20187;-58
2021/09/26 00:51:38;;;;;;;7.83;5.83;;;;;;;;;;5087879;28;20185;-57
2021/09/26 00:54:05;;;;;;;7.23;6.53;;;;;;;;;;5088550;28;20627;-58
2021/09/26 00:56:32;;;;;;;8.53;5.87;;;;;;;;;;5086604;28;20199;-57
2021/09/26 00:58:58;;;;;;;6.47;5.60;;;;;;;;;;5070654;28;20638;-58
2021/09/26 01:01:24;;;;;;;7.30;5.50;;;;;;;;;;5088101;28;20185;-57
2021/09/26 01:03:51;;;;;;;6.10;5.53;;;;;;;;;;5088783;28;20748;-57
2021/09/26 01:06:17;;;;;;;7.03;5.60;;;;;;;;;;5088214;28;20215;-57
2021/09/26 01:08:53;;;;;;;9.33;6.20;;;;;;;;;;5088952;28;20188;-57
2021/09/26 01:11:26;;;;;;;6.63;5.70;;;;;;;;;;5087133;28;20526;-58
2021/09/26 01:13:59;;;;;;;6.60;5.93;;;;;;;;;;5072776;28;20806;-57
2021/09/26 01:16:29;;;;;;;5.77;5.27;;;;;;;;;;5071608;28;20207;-57
2021/09/26 01:18:57;;;;;;;6.17;5.03;;;;;;;;;;5072451;28;20180;-58
2021/09/26 01:21:33;;;;;;;7.03;6.10;;;;;;;;;;5072144;28;20188;-58
2021/09/26 01:24:18;;;;;;;6.93;5.53;;;;;;;;;;5054275;28;20631;-57
2021/09/26 01:26:46;;;;;;;8.53;6.17;;;;;;;;;;5070641;28;20633;-57
2021/09/26 01:29:18;;;;;;;6.77;6.00;;;;;;;;;;5071992;28;20181;-57
2021/09/26 01:31:51;;;;;;;7.27;6.33;;;;;;;;;;5051721;28;20181;-57
2021/09/26 01:34:22;;;;;;;6.83;6.00;;;;;;;;;;5051221;28;20248;-57
2021/09/26 01:36:56;;;;;;;6.40;5.80;;;;;;;;;;5071376;28;20235;-58
2021/09/26 01:39:24;;;;;;;6.50;5.80;;;;;;;;;;5053827;28;20157;-56
2021/09/26 01:41:56;;;;;;;6.00;5.40;;;;;;;;;;5070427;28;20248;-56
2021/09/26 01:44:38;;;;;;;6.47;5.87;;;;;;;;;;5071589;28;20169;-57
2021/09/26 01:47:05;;;;;;;6.40;5.13;;;;;;;;;;5071193;28;20563;-56
2021/09/26 01:49:52;;;;;;;6.57;5.40;;;;;;;;;;5071532;28;20180;-57
2021/09/26 01:52:24;;;;;;;6.13;5.63;;;;;;;;;;5069338;28;20187;-57
2021/09/26 01:54:50;;;;;;;6.57;5.90;;;;;;;;;;5071122;28;20639;-57
2021/09/26 01:57:20;;;;;;;6.80;6.17;;;;;;;;;;5069277;28;20194;-56
2021/09/26 01:59:48;;;;;;;7.53;5.70;;;;;;;;;;5070998;28;20173;-57
2021/09/26 02:02:14;;;;;;;6.37;5.50;;;;;;;;;;5070425;28;20179;-57
2021/09/26 02:04:40;;;;;;;6.50;5.80;;;;;;;;;;5074082;28;20187;-57
2021/09/26 02:07:06;;;;;;;6.37;5.77;;;;;;;;;;5070478;28;20187;-57
2021/09/26 02:09:32;;;;;;;8.33;6.63;;;;;;;;;;5071437;28;20549;-57
2021/09/26 02:11:59;;;;;;;6.27;5.60;;;;;;;;;;5071015;28;20224;-57
2021/09/26 02:14:26;;;;;;;6.87;6.27;;;;;;;;;;5071064;28;20259;-57
2021/09/26 02:16:52;;;;;;;8.07;6.10;;;;;;;;;;5069450;28;20238;-57
2021/09/26 02:19:18;;;;;;;6.20;5.60;;;;;;;;;;5070925;28;20169;-57
2021/09/26 02:21:45;;;;;;;6.97;5.70;;;;;;;;;;5070935;28;20236;-57
2021/09/26 02:24:12;;;;;;;7.70;6.07;;;;;;;;;;5071510;28;20683;-57
2021/09/26 02:26:38;;;;;;;6.63;4.90;;;;;;;;;;5069540;28;20180;-57
2021/09/26 02:29:04;;;;;;;5.57;5.13;;;;;;;;;;5071089;28;20177;-57
2021/09/26 02:31:30;;;;;;;7.73;5.63;;;;;;;;;;5085131;28;20276;-57
2021/09/26 02:33:56;;;;;;;5.83;5.33;;;;;;;;;;5071453;28;20712;-57
2021/09/26 02:36:22;;;;;;;6.53;5.93;;;;;;;;;;5070185;28;20203;-57
2021/09/26 02:38:49;;;;;;;6.57;5.93;;;;;;;;;;5070806;28;20177;-57
2021/09/26 02:41:20;;;;;;;6.63;5.97;;;;;;;;;;5069179;28;20176;-57
2021/09/26 02:44:00;;;;;;;7.23;6.53;;;;;;;;;;5053160;28;20588;-57
2021/09/26 02:46:34;;;;;;;6.63;6.03;;;;;;;;;;5069976;28;20637;-57
2021/09/26 02:49:00;;;;;;;7.23;6.53;;;;;;;;;;5069774;28;20204;-57
2021/09/26 02:51:27;;;;;;;7.73;6.90;;;;;;;;;;5069895;28;20181;-57
2021/09/26 02:53:54;;;;;;;8.57;7.27;;;;;;;;;;5086409;28;20179;-57
2021/09/26 02:56:20;;;;;;;6.93;6.33;;;;;;;;;;5067226;28;20583;-57
2021/09/26 02:58:46;;;;;;;8.03;7.10;;;;;;;;;;5070402;28;20299;-57
2021/09/26 03:01:12;;;;;;;11.00;10.27;;;;;;;;;;5070036;28;20191;-57
2021/09/26 03:03:38;;;;;;;6.83;6.23;;;;;;;;;;5069305;28;20244;-57
2021/09/26 03:06:05;;;;;;;7.67;6.70;;;;;;;;;;5069848;28;20184;-57
2021/09/26 03:08:31;;;;;;;6.73;6.13;;;;;;;;;;5085589;28;20211;-57
2021/09/26 03:10:58;;;;;;;9.23;6.13;;;;;;;;;;5068632;28;20180;-57
2021/09/26 03:13:25;;;;;;;7.20;6.50;;;;;;;;;;5087347;28;20229;-57
2021/09/26 03:15:51;;;;;;;7.00;6.40;;;;;;;;;;5089520;28;20546;-57
2021/09/26 03:18:17;;;;;;;11.50;10.70;;;;;;;;;;5090046;28;20171;-57
2021/09/26 03:20:43;;;;;;;7.33;6.63;;;;;;;;;;5071165;28;20545;-57
2021/09/26 03:23:09;;;;;;;6.70;6.10;;;;;;;;;;5090324;28;20174;-57
2021/09/26 03:25:36;;;;;;;6.67;6.07;;;;;;;;;;5088627;28;20215;-58
2021/09/26 03:28:02;;;;;;;7.70;5.93;;;;;;;;;;5089613;28;20179;-57
2021/09/26 03:30:28;;;;;;;7.13;6.47;;;;;;;;;;5089565;28;20207;-56
2021/09/26 03:32:54;;;;;;;6.67;6.07;;;;;;;;;;5090121;28;20196;-57
2021/09/26 03:35:20;;;;;;;6.57;5.87;;;;;;;;;;5088905;28;20576;-57
2021/09/26 03:37:46;;;;;;;6.00;5.50;;;;;;;;;;5089564;28;20703;-57
2021/09/26 03:40:12;;;;;;;11.10;10.33;;;;;;;;;;5089571;28;20168;-58
2021/09/26 03:42:39;;;;;;;7.03;5.40;;;;;;;;;;5088958;28;20172;-58
2021/09/26 03:45:06;;;;;;;6.60;5.43;;;;;;;;;;5089509;28;20180;-57
2021/09/26 03:47:32;;;;;;;5.33;4.90;;;;;;;;;;5089559;28;20538;-57
2021/09/26 03:49:58;;;;;;;6.97;5.93;;;;;;;;;;5089420;28;20200;-57
2021/09/26 03:52:25;;;;;;;9.57;5.73;;;;;;;;;;5071330;28;20222;-57
2021/09/26 03:54:51;;;;;;;6.20;5.70;;;;;;;;;;5071316;28;20183;-57
2021/09/26 03:57:18;;;;;;;6.37;5.70;;;;;;;;;;5088174;28;20198;-57
2021/09/26 03:59:44;;;;;;;5.90;5.20;;;;;;;;;;5071210;28;20196;-57
2021/09/26 04:02:10;;;;;;;9.80;9.07;;;;;;;;;;5089500;28;20234;-57
2021/09/26 04:04:37;;;;;;;6.23;5.63;;;;;;;;;;5071386;28;20195;-57
2021/09/26 04:07:03;;;;;;;6.03;5.53;;;;;;;;;;5057520;28;20190;-57
2021/09/26 04:09:29;;;;;;;7.13;5.77;;;;;;;;;;5071687;28;20568;-57
2021/09/26 04:11:56;;;;;;;5.90;5.40;;;;;;;;;;5088096;28;20250;-57
2021/09/26 04:14:22;;;;;;;6.80;5.53;;;;;;;;;;5071307;28;20183;-57
2021/09/26 04:16:49;;;;;;;7.27;5.80;;;;;;;;;;5090074;28;20659;-57
2021/09/26 04:19:16;;;;;;;6.13;5.60;;;;;;;;;;5071981;28;20184;-57
2021/09/26 04:21:43;;;;;;;5.67;5.17;;;;;;;;;;5072186;28;20183;-57
2021/09/26 04:24:10;;;;;;;7.10;6.50;;;;;;;;;;5072030;28;20176;-57
2021/09/26 04:26:36;;;;;;;6.90;6.30;;;;;;;;;;5089137;28;20180;-57
2021/09/26 04:29:02;;;;;;;6.67;5.77;;;;;;;;;;5090513;28;20187;-57
2021/09/26 04:31:29;;;;;;;6.23;5.63;;;;;;;;;;5087009;28;20535;-57
2021/09/26 04:33:55;;;;;;;6.00;5.50;;;;;;;;;;5090498;28;20521;-57
2021/09/26 04:36:21;;;;;;;7.90;6.13;;;;;;;;;;5071316;28;20200;-57
2021/09/26 04:38:47;;;;;;;7.17;6.47;;;;;;;;;;5088511;28;20184;-58
2021/09/26 04:41:13;;;;;;;6.73;6.07;;;;;;;;;;5069917;28;20521;-57
2021/09/26 04:43:40;;;;;;;6.50;5.90;;;;;;;;;;5089779;28;20174;-58
2021/09/26 04:46:06;;;;;;;8.17;7.50;;;;;;;;;;5070658;28;20176;-57
2021/09/26 04:48:32;;;;;;;5.70;5.13;;;;;;;;;;5088178;28;20223;-57
2021/09/26 04:50:58;;;;;;;6.90;5.60;;;;;;;;;;5089365;28;20258;-57
2021/09/26 04:53:24;;;;;;;6.60;6.00;;;;;;;;;;5089864;28;20179;-58
2021/09/26 04:55:50;;;;;;;6.60;5.83;;;;;;;;;;5087896;28;20233;-58
2021/09/26 04:58:17;;;;;;;6.47;5.87;;;;;;;;;;5089951;28;20203;-57
2021/09/26 05:00:46;;;;;;;11.17;10.03;;;;;;;;;;5089347;28;20177;-57
2021/09/26 05:03:12;;;;;;;6.93;6.27;;;;;;;;;;5071516;28;20176;-58
2021/09/26 05:05:38;;;;;;;8.40;6.50;;;;;;;;;;5089225;28;20205;-57
2021/09/26 05:08:04;;;;;;;6.67;6.00;;;;;;;;;;5071903;28;20184;-57
2021/09/26 05:10:31;;;;;;;8.83;8.03;;;;;;;;;;5088317;28;20185;-57
2021/09/26 05:12:57;;;;;;;7.10;6.30;;;;;;;;;;5075882;28;20216;-57
2021/09/26 05:15:23;;;;;;;7.43;6.73;;;;;;;;;;5069003;28;20192;-57
2021/09/26 05:17:49;;;;;;;6.20;5.70;;;;;;;;;;5051089;28;20681;-57
2021/09/26 05:20:15;;;;;;;7.40;6.13;;;;;;;;;;5069222;28;20184;-57
2021/09/26 05:22:42;;;;;;;6.33;5.73;;;;;;;;;;5069510;28;20176;-57
2021/09/26 05:25:08;;;;;;;6.97;6.27;;;;;;;;;;5050728;28;20191;-58
2021/09/26 05:27:34;;;;;;;7.77;6.80;;;;;;;;;;5065045;28;20238;-58
2021/09/26 05:30:02;;;;;;;7.17;6.57;;;;;;;;;;5037201;28;20234;-57
2021/09/26 05:32:28;;;;;;;6.80;6.03;;;;;;;;;;5068141;28;20258;-57
2021/09/26 05:34:54;;;;;;;6.73;6.03;;;;;;;;;;5069082;28;20238;-58
2021/09/26 05:37:20;;;;;;;7.07;6.27;;;;;;;;;;5049777;28;20208;-58
2021/09/26 05:39:47;;;;;;;6.97;6.27;;;;;;;;;;5048789;28;20273;-58
2021/09/26 05:42:13;;;;;;;6.30;5.70;;;;;;;;;;5049260;28;20290;-58
2021/09/26 05:44:39;;;;;;;6.73;6.13;;;;;;;;;;5051678;28;20168;-58
2021/09/26 05:47:08;;;;;;;7.23;6.53;;;;;;;;;;5051052;28;20181;-58
2021/09/26 05:49:38;;;;;;;6.80;6.20;;;;;;;;;;5050858;28;20197;-58
2021/09/26 05:52:06;;;;;;;6.50;5.90;;;;;;;;;;5068712;28;20231;-58
2021/09/26 05:54:32;;;;;;;7.63;6.93;;;;;;;;;;5049205;28;20184;-58
2021/09/26 05:56:58;;;;;;;8.47;6.60;;;;;;;;;;5047409;28;20566;-58
2021/09/26 05:59:24;;;;;;;6.83;6.20;;;;;;;;;;5051347;28;20732;-58
2021/09/26 06:01:51;;;;;;;7.40;6.70;;;;;;;;;;5051819;28;20178;-58
2021/09/26 06:04:17;;;;;;;8.90;7.13;;;;;;;;;;5069662;28;20173;-58
2021/09/26 06:06:43;;;;;;;6.93;6.33;;;;;;;;;;5059004;28;20804;-58
2021/09/26 06:09:09;;;;;;;9.23;6.07;;;;;;;;;;5049336;28;20170;-58
2021/09/26 06:11:35;;;;;;;7.80;7.10;;;;;;;;;;5069546;28;20181;-58
2021/09/26 06:14:01;;;;;;;7.77;6.87;;;;;;;;;;5089887;28;20165;-58
2021/09/26 06:16:27;;;;;;;7.37;6.67;;;;;;;;;;5087725;28;20718;-58
2021/09/26 06:18:53;;;;;;;7.43;6.77;;;;;;;;;;5089872;28;20627;-58
2021/09/26 06:21:20;;;;;;;7.87;7.07;;;;;;;;;;5089953;28;20191;-58
2021/09/26 06:23:46;;;;;;;8.00;6.43;;;;;;;;;;5073096;28;20218;-58
2021/09/26 06:26:14;;;;;;;9.80;7.07;;;;;;;;;;5085262;28;20187;-58
2021/09/26 06:28:40;;;;;;;7.47;6.77;;;;;;;;;;5092285;28;20558;-58
2021/09/26 06:31:06;;;;;;;8.03;7.23;;;;;;;;;;5090141;28;20176;-58
2021/09/26 06:33:32;;;;;;;6.67;6.07;;;;;;;;;;5090949;28;20252;-58
2021/09/26 06:35:58;;;;;;;9.40;7.10;;;;;;;;;;5091642;28;20199;-57
2021/09/26 06:38:24;;;;;;;10.93;7.33;;;;;;;;;;5092038;28;20255;-58
2021/09/26 06:40:51;;;;;;;8.73;7.83;;;;;;;;;;5090733;28;20548;-58
2021/09/26 06:43:17;;;;;;;8.70;7.80;;;;;;;;;;5091095;28;20214;-58
2021/09/26 06:45:43;;;;;;;7.87;7.07;;;;;;;;;;5090227;28;20179;-58
2021/09/26 06:48:09;;;;;;;8.03;6.87;;;;;;;;;;5090630;28;20570;-58
2021/09/26 06:50:35;;;;;;;8.50;7.70;;;;;;;;;;5090117;28;20196;-58
2021/09/26 06:53:01;;;;;;;8.57;7.60;;;;;;;;;;5090681;28;20173;-58
2021/09/26 06:55:27;;;;;;;8.07;7.33;;;;;;;;;;5087490;28;20202;-58
2021/09/26 06:57:53;;;;;;;8.00;7.30;;;;;;;;;;5089183;28;20670;-58
2021/09/26 07:00:19;;;;;;;8.27;7.47;;;;;;;;;;5088561;28;20182;-58
2021/09/26 07:02:45;;;;;;;7.40;6.73;;;;;;;;;;5089336;28;20174;-58
2021/09/26 07:05:12;;;;;;;8.63;7.83;;;;;;;;;;5088747;28;20509;-57
2021/09/26 07:07:38;;;;;;;7.63;6.97;;;;;;;;;;5088616;28;20184;-58
2021/09/26 07:10:04;;;;;;;7.73;7.03;;;;;;;;;;5088400;28;20188;-58
2021/09/26 07:12:30;;;;;;;7.30;6.70;;;;;;;;;;5079127;28;20208;-58
2021/09/26 07:15:01;;;;;;;9.60;7.23;;;;;;;;;;5069788;28;20314;-58
2021/09/26 07:17:27;;;;;;;8.37;7.40;;;;;;;;;;5069681;28;20620;-58
2021/09/26 07:19:53;;;;;;;8.53;7.30;;;;;;;;;;5069573;28;20542;-57
2021/09/26 07:22:23;;;;;;;7.47;6.77;;;;;;;;;;5069699;28;20175;-57
2021/09/26 07:24:50;;;;;;;7.00;6.40;;;;;;;;;;5070010;28;20180;-57
2021/09/26 07:27:17;;;;;;;7.80;6.93;;;;;;;;;;5068505;28;20169;-57
2021/09/26 07:29:44;;;;;;;7.80;6.73;;;;;;;;;;5035970;28;20188;-57
2021/09/26 07:32:10;;;;;;;8.35;7.30;;;;;;;;;;5034515;28;20413;-57
2021/09/26 07:34:37;;;;;;;7.13;6.53;;;;;;;;;;5068286;28;20181;-57
2021/09/26 07:37:03;;;;;;;8.20;6.67;;;;;;;;;;5068257;28;20237;-57
2021/09/26 07:39:29;;;;;;;7.10;6.40;;;;;;;;;;5068055;28;20201;-57
2021/09/26 07:41:55;;;;;;;7.10;6.50;;;;;;;;;;5067158;28;20180;-57
2021/09/26 07:44:21;;;;;;;7.87;7.03;;;;;;;;;;5069478;28;20173;-57
2021/09/26 07:46:47;;;;;;;8.30;7.30;;;;;;;;;;5068379;28;20631;-57
2021/09/26 07:49:15;;;;;;;7.50;6.80;;;;;;;;;;5069126;28;20180;-57
2021/09/26 07:51:41;;;;;;;8.97;7.83;;;;;;;;;;5049483;28;20177;-57
2021/09/26 07:54:08;;;;;;;12.23;7.47;;;;;;;;;;5031813;28;20181;-57
2021/09/26 07:56:34;;;;;;;8.20;7.30;;;;;;;;;;5051406;28;20201;-57
2021/09/26 07:59:00;;;;;;;9.23;8.33;;;;;;;;;;5031961;28;20296;-56
2021/09/26 08:01:26;;;;;;;8.63;7.83;;;;;;;;;;5049365;28;20184;-57
2021/09/26 08:03:53;;;;;;;8.73;7.83;;;;;;;;;;5068092;28;20270;-58
2021/09/26 08:06:19;;;;;;;9.13;8.20;;;;;;;;;;5067557;28;20212;-56
2021/09/26 08:08:45;;;;;;;8.47;7.73;;;;;;;;;;5069273;28;20259;-58
2021/09/26 08:11:12;;;;;;;10.47;8.50;;;;;;;;;;5049927;28;20329;-57
2021/09/26 08:13:38;;;;;;;8.00;7.27;;;;;;;;;;5088753;28;20697;-58
2021/09/26 08:16:04;;;;;;;9.27;8.47;;;;;;;;;;5089156;28;20198;-57
2021/09/26 08:18:31;;;;;;;8.37;7.50;;;;;;;;;;5089647;28;20182;-57
2021/09/26 08:20:57;;;;;;;8.50;7.60;;;;;;;;;;5070667;28;20244;-58
2021/09/26 08:23:23;;;;;;;13.40;7.60;;;;;;;;;;5089887;28;20168;-58
2021/09/26 08:25:51;;;;;;;7.93;7.13;;;;;;;;;;5087294;28;20645;-58
2021/09/26 08:28:17;;;;;;;7.43;6.67;;;;;;;;;;5081115;28;20691;-58
2021/09/26 08:30:43;;;;;;;7.03;6.40;;;;;;;;;;5079482;28;20187;-58
2021/09/26 08:33:09;;;;;;;8.20;6.80;;;;;;;;;;5070992;28;20328;-58
2021/09/26 08:35:36;;;;;;;7.40;6.60;;;;;;;;;;5088550;28;20682;-58
2021/09/26 08:38:02;;;;;;;7.03;6.33;;;;;;;;;;5070772;28;20204;-58
2021/09/26 08:40:28;;;;;;;8.97;7.27;;;;;;;;;;5087305;28;20200;-58
2021/09/26 08:42:54;;;;;;;7.50;6.50;;;;;;;;;;5090141;28;20273;-58
2021/09/26 08:45:21;;;;;;;7.50;6.90;;;;;;;;;;5089146;28;20717;-58
2021/09/26 08:47:48;;;;;;;8.00;6.67;;;;;;;;;;5054869;28;20179;-57
2021/09/26 08:50:17;;;;;;;7.73;6.40;;;;;;;;;;5089057;28;20187;-57
2021/09/26 08:52:44;;;;;;;7.43;6.63;;;;;;;;;;5052184;28;20255;-57
2021/09/26 08:55:12;;;;;;;7.00;6.33;;;;;;;;;;5088590;28;20258;-58
2021/09/26 08:57:38;;;;;;;7.30;6.70;;;;;;;;;;5088562;28;20256;-57
2021/09/26 09:00:07;;;;;;;7.67;6.90;;;;;;;;;;5089262;28;20221;-57
2021/09/26 09:02:33;;;;;;;7.77;6.97;;;;;;;;;;5071189;28;20176;-57
2021/09/26 09:04:59;;;;;;;7.90;6.90;;;;;;;;;;5071132;28;20186;-57
2021/09/26 09:07:25;;;;;;;9.97;7.87;;;;;;;;;;5088981;28;20214;-57
2021/09/26 09:09:56;;;;;;;7.73;7.00;;;;;;;;;;5089435;28;20231;-57
2021/09/26 09:12:31;;;;;;;7.50;6.50;;;;;;;;;;5088190;28;20226;-57
2021/09/26 09:14:59;;;;;;;7.50;6.80;;;;;;;;;;5086677;28;20183;-57
2021/09/26 09:17:33;;;;;;;7.40;6.70;;;;;;;;;;5088290;28;20206;-57
2021/09/26 09:20:23;;;;;;;6.90;6.30;;;;;;;;;;5086709;28;20180;-57
2021/09/26 09:22:54;;;;;;;7.07;6.37;;;;;;;;;;5080324;28;20647;-57
2021/09/26 09:25:31;;;;;;;7.00;6.40;;;;;;;;;;5087968;28;20249;-57
2021/09/26 09:27:57;;;;;;;6.40;5.90;;;;;;;;;;5088712;28;20186;-57
2021/09/26 09:30:31;;;;;;;7.83;7.03;;;;;;;;;;5088833;28;20179;-57
2021/09/26 09:32:57;;;;;;;7.10;6.50;;;;;;;;;;5072826;28;20333;-57
2021/09/26 09:35:24;;;;;;;7.83;7.03;;;;;;;;;;5081281;28;20595;-57
2021/09/26 09:37:50;;;;;;;7.50;6.90;;;;;;;;;;5075785;28;20217;-56
2021/09/26 09:40:19;;;;;;;10.77;6.27;;;;;;;;;;5093198;28;20591;-57
2021/09/26 09:42:50;;;;;;;8.27;6.87;;;;;;;;;;5074615;28;20229;-57
2021/09/26 09:45:18;;;;;;;8.43;5.80;;;;;;;;;;5080107;28;20188;-57
2021/09/26 09:48:03;;;;;;;7.37;6.33;;;;;;;;;;5091795;28;20271;-56
2021/09/26 09:50:31;;;;;;;6.73;6.07;;;;;;;;;;5090876;28;20198;-58
2021/09/26 09:52:57;;;;;;;7.63;6.77;;;;;;;;;;5093462;28;20183;-58
2021/09/26 09:55:27;;;;;;;6.77;6.07;;;;;;;;;;5090063;28;20196;-58
2021/09/26 09:57:54;;;;;;;6.73;6.13;;;;;;;;;;5091759;28;20550;-58
2021/09/26 10:00:25;;;;;;;6.93;6.03;;;;;;;;;;5090927;28;20262;-58
2021/09/26 10:02:51;;;;;;;8.10;6.40;;;;;;;;;;5091999;28;20187;-58
2021/09/26 10:05:31;;;;;;;7.00;6.40;;;;;;;;;;5091244;28;20189;-58
2021/09/26 10:07:57;;;;;;;6.90;5.77;;;;;;;;;;5054707;28;20180;-58
2021/09/26 10:10:30;;;;;;;7.50;6.37;;;;;;;;;;5081188;28;20689;-59
2021/09/26 10:13:09;;;;;;;6.73;6.03;;;;;;;;;;5092763;28;20236;-57
2021/09/26 10:15:36;;;;;;;7.47;6.30;;;;;;;;;;5091893;28;20184;-57
2021/09/26 10:18:02;;;;;;;6.50;5.93;;;;;;;;;;5074136;28;20236;-57
2021/09/26 10:20:29;;;;;;;7.20;6.40;;;;;;;;;;5080882;28;20653;-57
2021/09/26 10:22:56;;;;;;;6.50;5.90;;;;;;;;;;5091687;28;20181;-57
2021/09/26 10:25:22;;;;;;;6.87;6.20;;;;;;;;;;5089814;28;20190;-58
2021/09/26 10:27:49;;;;;;;6.73;6.13;;;;;;;;;;5090939;28;20184;-57
2021/09/26 10:30:16;;;;;;;6.40;5.90;;;;;;;;;;5089987;28;20213;-58
2021/09/26 10:32:44;;;;;;;6.60;6.10;;;;;;;;;;5091078;28;20211;-57
2021/09/26 10:35:11;;;;;;;7.50;5.30;;;;;;;;;;5091872;28;20179;-57
2021/09/26 10:37:40;;;;;;;6.23;5.63;;;;;;;;;;5073575;28;20200;-57
2021/09/26 10:40:06;;;;;;;5.70;5.20;;;;;;;;;;5077260;28;20184;-56
2021/09/26 10:42:36;;;;;;;6.00;5.23;;;;;;;;;;5090938;28;20577;-57
2021/09/26 10:45:04;;;;;;;5.40;4.73;;;;;;;;;;5091521;28;20190;-57
2021/09/26 10:47:32;;;;;;;6.33;5.60;;;;;;;;;;5092181;28;20176;-57
2021/09/26 10:49:58;;;;;;;5.80;4.80;;;;;;;;;;5076029;28;20191;-58
2021/09/26 10:52:29;;;;;;;5.73;5.17;;;;;;;;;;5091690;28;20191;-58
2021/09/26 10:54:55;;;;;;;5.23;4.73;;;;;;;;;;5089746;28;20187;-58
2021/09/26 10:57:23;;;;;;;5.67;5.17;;;;;;;;;;5090370;28;20204;-58
2021/09/26 10:59:52;;;;;;;5.77;5.17;;;;;;;;;;5089838;28;20244;-58
2021/09/26 11:02:25;;;;;;;6.03;5.37;;;;;;;;;;5089850;28;20183;-57
2021/09/26 11:04:54;;;;;;;5.13;4.63;;;;;;;;;;5091486;28;20213;-58
2021/09/26 11:07:21;;;;;;;5.80;4.57;;;;;;;;;;5091298;28;20181;-58
2021/09/26 11:09:55;;;;;;;5.80;5.00;;;;;;;;;;5091374;28;20183;-58
2021/09/26 11:12:37;;;;;;;5.27;4.60;;;;;;;;;;5081551;28;20299;-58
2021/09/26 11:15:03;;;;;;;5.77;4.43;;;;;;;;;;5070969;28;20178;-58
2021/09/26 11:17:49;;;;;;;5.43;4.50;;;;;;;;;;5070323;28;20218;-58
2021/09/26 11:20:30;;;;;;;4.70;4.27;;;;;;;;;;5070390;28;20260;-58
2021/09/26 11:23:06;;;;;;;5.17;4.67;;;;;;;;;;5071059;28;20239;-58
2021/09/26 11:25:50;;;;;;;5.40;4.63;;;;;;;;;;5069576;28;20250;-58
2021/09/26 11:28:26;;;;;;;6.33;4.80;;;;;;;;;;5070560;28;20662;-59
2021/09/26 11:30:56;;;;;;;8.53;4.67;;;;;;;;;;5051862;28;20214;-59
2021/09/26 11:33:22;;;;;;;4.73;4.33;;;;;;;;;;5052075;28;20194;-58
2021/09/26 11:35:49;;;;;;;4.70;4.30;;;;;;;;;;5035656;28;20560;-58
2021/09/26 11:38:20;;;;;;;6.83;4.23;;;;;;;;;;5070344;28;20213;-59
2021/09/26 11:40:49;;;;;;;4.40;4.00;;;;;;;;;;5067671;28;20197;-59
2021/09/26 11:43:20;;;;;;;4.70;4.30;;;;;;;;;;5069670;28;20183;-58
2021/09/26 11:45:46;;;;;;;6.13;4.10;;;;;;;;;;5069989;28;20169;-58
2021/09/26 11:48:13;;;;;;;4.03;3.40;;;;;;;;;;5069358;28;20641;-59
2021/09/26 11:50:40;;;;;;;4.10;3.80;;;;;;;;;;5070104;28;20740;-58
2021/09/26 11:53:07;;;;;;;4.93;3.70;;;;;;;;;;5069114;28;20180;-58
2021/09/26 11:55:37;;;;;;;4.10;3.67;;;;;;;;;;5068339;28;20709;-59
2021/09/26 11:58:04;;;;;;;4.77;4.20;;;;;;;;;;5069339;28;20228;-58
2021/09/26 12:00:31;;;;;;;5.03;3.33;;;;;;;;;;5069836;28;20674;-58
2021/09/26 12:03:10;;;;;;;4.50;3.60;;;;;;;;;;5070245;28;20200;-59
2021/09/26 12:05:37;;;;;;;8.13;4.23;;;;;;;;;;5068311;28;20694;-58
2021/09/26 12:08:05;;;;;;;4.63;3.53;;;;;;;;;;5050306;28;20175;-59
2021/09/26 12:10:31;;;;;;;3.20;3.00;;;;;;;;;;5041156;28;20191;-58
2021/09/26 12:12:57;;;;;;;4.90;3.50;;;;;;;;;;5083206;28;20212;-58
2021/09/26 12:15:26;;;;;;;4.03;3.30;;;;;;;;;;5089317;28;20178;-59
2021/09/26 12:17:56;;;;;;;5.10;3.87;;;;;;;;;;5089951;28;20206;-58
2021/09/26 12:20:23;;;;;;;5.20;4.80;;;;;;;;;;5089227;28;20171;-58
2021/09/26 12:22:53;;;;;;;4.63;3.20;;;;;;;;;;5090192;28;20201;-59
2021/09/26 12:25:28;;;;;;;4.20;3.20;;;;;;;;;;5070201;28;20185;-59
2021/09/26 12:27:56;;;;;;;5.40;3.50;;;;;;;;;;5090079;28;20272;-58
2021/09/26 12:30:42;;;;;;;4.23;3.20;;;;;;;;;;5089265;28;20631;-58
2021/09/26 12:33:19;;;;;;;3.73;3.43;;;;;;;;;;5089658;28;20197;-58
2021/09/26 12:35:47;;;;;;;3.47;3.17;;;;;;;;;;5088858;28;20257;-58
2021/09/26 12:38:16;;;;;;;3.40;3.10;;;;;;;;;;5089852;28;20291;-59
2021/09/26 12:40:50;;;;;;;4.87;3.73;;;;;;;;;;5069932;28;20277;-59
2021/09/26 12:43:21;;;;;;;3.10;2.90;;;;;;;;;;5071286;28;20219;-58
2021/09/26 12:45:47;;;;;;;3.40;3.10;;;;;;;;;;5070805;28;20643;-59
2021/09/26 12:48:16;;;;;;;3.70;3.03;;;;;;;;;;5089553;28;20178;-58
2021/09/26 12:50:44;;;;;;;4.37;3.30;;;;;;;;;;5088952;28;20187;-58
2021/09/26 12:53:12;;;;;;;3.43;3.10;;;;;;;;;;5070994;28;20205;-58
2021/09/26 12:55:39;;;;;;;3.67;3.37;;;;;;;;;;5086732;28;21056;-58
2021/09/26 12:58:07;;;;;;;5.63;3.50;;;;;;;;;;5070604;28;20623;-58
2021/09/26 13:00:35;;;;;;;4.13;3.20;;;;;;;;;;5069934;28;20179;-58
2021/09/26 13:03:11;;;;;;;3.57;3.07;;;;;;;;;;5088619;28;20263;-57
2021/09/26 13:05:38;;;;;;;4.20;3.03;;;;;;;;;;5099757;28;20171;-58
2021/09/26 13:08:07;;;;;;;5.57;3.23;;;;;;;;;;5110332;28;20175;-58
2021/09/26 13:10:34;;;;;;;3.70;3.30;;;;;;;;;;5100114;28;20246;-58
2021/09/26 13:13:10;;;;;;;3.53;3.23;;;;;;;;;;5092318;28;20219;-58
2021/09/26 13:15:37;;;;;;;7.07;4.50;;;;;;;;;;5103210;28;20646;-58
2021/09/26 13:18:18;;;;;;;5.07;3.30;;;;;;;;;;5112264;28;20205;-58
2021/09/26 13:20:48;;;;;;;3.93;3.50;;;;;;;;;;5099265;28;20633;-58
2021/09/26 13:23:44;;;;;;;5.30;3.67;;;;;;;;;;5074341;28;20553;-58
2021/09/26 13:26:28;;;;;;;3.60;2.90;;;;;;;;;;5057408;28;20709;-58
2021/09/26 13:28:59;;;;;;;5.37;3.17;;;;;;;;;;5072311;28;20211;-58
2021/09/26 13:31:30;;;;;;;4.17;2.90;;;;;;;;;;5090072;28;20503;-58
2021/09/26 13:34:10;;;;;;;3.50;3.20;;;;;;;;;;5074086;28;20724;-58
2021/09/26 13:36:40;;;;;;;6.20;3.90;;;;;;;;;;5091805;28;20676;-58
2021/09/26 13:39:11;;;;;;;4.87;3.30;;;;;;;;;;5073896;28;20176;-58
2021/09/26 13:41:42;;;;;;;3.97;3.10;;;;;;;;;;5110525;28;20175;-58
2021/09/26 13:44:10;;;;;;;5.50;3.50;;;;;;;;;;5112581;28;20515;-58
2021/09/26 13:46:36;;;;;;;3.67;3.30;;;;;;;;;;5091564;28;20592;-58
2021/09/26 13:49:02;;;;;;;4.20;3.50;;;;;;;;;;5091745;28;20221;-58
2021/09/26 13:51:29;;;;;;;4.87;4.30;;;;;;;;;;5109738;28;20260;-58
2021/09/26 13:53:58;;;;;;;6.20;3.67;;;;;;;;;;5112903;28;20194;-58
2021/09/26 13:56:24;;;;;;;5.80;3.63;;;;;;;;;;5090875;28;20218;-58
2021/09/26 13:58:51;;;;;;;4.30;2.97;;;;;;;;;;5091894;28;20180;-58
2021/09/26 14:01:17;;;;;;;6.43;5.40;;;;;;;;;;5091019;28;20179;-58
2021/09/26 14:03:44;;;;;;;5.30;3.73;;;;;;;;;;5091849;28;20167;-58
2021/09/26 14:06:10;;;;;;;4.33;3.40;;;;;;;;;;5101010;28;20538;-58
2021/09/26 14:08:36;;;;;;;5.23;3.17;;;;;;;;;;5091286;28;20597;-58
2021/09/26 14:11:03;;;;;;;3.53;2.80;;;;;;;;;;5090268;28;20814;-59
2021/09/26 14:13:30;;;;;;;5.10;3.90;;;;;;;;;;5091536;28;20208;-59
2021/09/26 14:15:57;;;;;;;3.73;3.20;;;;;;;;;;5091746;28;20194;-59
2021/09/26 14:18:23;;;;;;;5.67;3.03;;;;;;;;;;5091304;28;20270;-59
2021/09/26 14:20:50;;;;;;;3.93;3.17;;;;;;;;;;5082260;28;20191;-59
2021/09/26 14:23:16;;;;;;;6.20;4.53;;;;;;;;;;5090022;28;20226;-59
2021/09/26 14:25:42;;;;;;;3.30;3.00;;;;;;;;;;5087934;28;20616;-59
2021/09/26 14:28:10;;;;;;;3.77;3.37;;;;;;;;;;5089879;28;20245;-59
2021/09/26 14:30:36;;;;;;;6.13;3.47;;;;;;;;;;5088747;28;20191;-59
2021/09/26 14:33:03;;;;;;;6.57;3.33;;;;;;;;;;5091562;28;20251;-59
2021/09/26 14:35:30;;;;;;;4.50;3.50;;;;;;;;;;5088610;28;20195;-59
2021/09/26 14:37:57;;;;;;;5.83;3.57;;;;;;;;;;5089543;28;20222;-58
2021/09/26 14:40:23;;;;;;;5.77;3.37;;;;;;;;;;5089875;28;20641;-59
2021/09/26 14:42:50;;;;;;;4.70;3.20;;;;;;;;;;5091031;28;20300;-59
2021/09/26 14:45:17;;;;;;;4.30;3.60;;;;;;;;;;5087199;28;20550;-59
2021/09/26 14:47:43;;;;;;;3.67;3.10;;;;;;;;;;5090867;28;20190;-59